Inicio METAR Ruta Wind Satelite

Informe Meteorológico

Fecha: 2020/07/02 01:01:22 Local
2020.07.02 06:01 UTC


Estado: VENCIDO
Operación:
Puerto Asis, Colombia (SKAS) 00-30N 076-30W
2019.08.02 2000 UTC
Wind: from the N (010 degrees) at 7 MPH (6 KT):0
Visibility: greater than 7 mile(s):0
Sky conditions: partly cloudy
Temperature: 95 F (35 C)
Heat index: 107.4 F (41.9 C):1
Dew Point: 75 F (24 C)
Relative Humidity: 53%
Pressure (altimeter): 29.8 in. Hg (1009 hPa)
ob: SKAS 022000Z 01006KT 9999 FEW020 SCT200 35/24 A2980
cycle: 20